createdAt,value
2018-12-30T00:00:06.993Z,13.13
2018-12-30T00:02:55.042Z,13.40
2018-12-30T00:05:44.854Z,14.30
2018-12-30T00:11:42.105Z,14.43
2018-12-30T00:17:37.271Z,12.90
2018-12-30T00:20:25.425Z,13.33
2018-12-30T00:23:13.510Z,13.57
2018-12-30T00:26:01.416Z,13.50
2018-12-30T00:28:49.495Z,14.13
2018-12-30T00:31:18.473Z,13.57
2018-12-30T00:34:06.505Z,13.40
2018-12-30T00:36:54.616Z,14.57
2018-12-30T00:42:49.769Z,12.97
2018-12-30T00:45:37.845Z,13.03
2018-12-30T00:48:25.913Z,12.70
2018-12-30T00:51:17.172Z,12.30
2018-12-30T00:54:03.777Z,12.27
2018-12-30T00:56:52.114Z,12.00
2018-12-30T00:59:40.202Z,11.63
2018-12-30T01:02:28.098Z,12.20
2018-12-30T01:05:16.110Z,11.60
2018-12-30T01:08:04.182Z,12.67
2018-12-30T01:10:52.299Z,12.67
2018-12-30T01:13:42.098Z,12.77
2018-12-30T01:16:30.179Z,12.37
2018-12-30T01:22:25.341Z,12.90
2018-12-30T01:25:13.430Z,13.03
2018-12-30T01:28:01.326Z,12.70
2018-12-30T01:30:49.477Z,12.80
2018-12-30T01:33:37.905Z,13.60
2018-12-30T01:36:27.702Z,13.57
2018-12-30T01:39:15.733Z,12.53
2018-12-30T01:42:05.851Z,12.90
2018-12-30T01:47:47.693Z,13.10
2018-12-30T01:50:35.731Z,12.73
2018-12-30T01:53:25.949Z,11.60
2018-12-30T01:56:13.985Z,12.40
2018-12-30T01:59:01.931Z,12.07
2018-12-30T02:04:57.105Z,11.63
2018-12-30T02:07:45.143Z,12.37
2018-12-30T02:10:33.227Z,11.30
2018-12-30T02:16:28.831Z,12.47
2018-12-30T02:19:16.920Z,12.43
2018-12-30T02:22:05.009Z,12.40
2018-12-30T02:28:00.057Z,13.23
2018-12-30T02:30:48.107Z,12.10
2018-12-30T02:33:36.487Z,12.50
2018-12-30T02:36:26.244Z,12.90
2018-12-30T02:39:14.179Z,13.13
2018-12-30T02:42:02.437Z,13.90
2018-12-30T02:44:50.484Z,12.80
2018-12-30T02:47:40.294Z,13.33
2018-12-30T02:50:28.267Z,14.50
2018-12-30T02:53:18.086Z,13.30
2018-12-30T02:56:06.121Z,12.93
2018-12-30T02:58:55.912Z,13.63
2018-12-30T03:04:51.089Z,14.67
2018-12-30T03:07:39.121Z,14.83
2018-12-30T03:13:20.737Z,15.80
2018-12-30T03:16:08.680Z,14.87
2018-12-30T03:18:56.717Z,14.40
2018-12-30T03:24:38.540Z,15.00
2018-12-30T03:30:20.483Z,14.73
2018-12-30T03:33:08.564Z,15.93
2018-12-30T03:35:56.457Z,15.63
2018-12-30T03:38:44.529Z,16.17
2018-12-30T03:41:32.561Z,16.10
2018-12-30T03:44:20.930Z,15.37
2018-12-30T03:47:09.009Z,17.20
2018-12-30T03:52:45.155Z,16.40
2018-12-30T03:55:33.195Z,16.00
2018-12-30T03:58:21.232Z,15.10
2018-12-30T04:01:09.266Z,15.33
2018-12-30T04:03:57.349Z,14.80
2018-12-30T04:06:45.392Z,15.53
2018-12-30T04:09:33.402Z,17.93
2018-12-30T04:12:21.847Z,17.30
2018-12-30T04:15:09.881Z,16.10
2018-12-30T04:17:57.956Z,15.27
2018-12-30T04:20:45.989Z,16.60
2018-12-30T04:23:34.071Z,15.30
2018-12-30T04:26:22.142Z,15.40
2018-12-30T04:29:10.107Z,14.43
2018-12-30T04:31:58.088Z,15.20
2018-12-30T04:34:46.034Z,16.57
2018-12-30T04:37:34.361Z,15.60
2018-12-30T04:40:03.677Z,16.00
2018-12-30T04:42:51.574Z,15.97
2018-12-30T04:45:39.657Z,14.57
2018-12-30T04:48:27.706Z,15.33
2018-12-30T04:51:15.798Z,15.20
2018-12-30T04:54:03.730Z,14.10
2018-12-30T04:56:52.162Z,15.80
2018-12-30T05:02:47.344Z,15.77
2018-12-30T05:05:35.405Z,15.30
2018-12-30T05:08:04.390Z,16.60
2018-12-30T05:10:52.331Z,15.80
2018-12-30T05:16:47.793Z,15.33
2018-12-30T05:19:35.737Z,15.57
2018-12-30T05:25:30.977Z,15.83
2018-12-30T05:31:26.093Z,15.50
2018-12-30T05:34:14.148Z,14.80
2018-12-30T05:37:02.240Z,15.73
2018-12-30T05:39:50.130Z,15.70
2018-12-30T05:42:38.461Z,15.60
2018-12-30T05:45:07.945Z,15.30
2018-12-30T05:47:55.903Z,16.20
2018-12-30T05:50:43.941Z,14.70
2018-12-30T05:53:32.021Z,14.80
2018-12-30T05:56:20.370Z,15.43
2018-12-30T05:59:08.441Z,15.17
2018-12-30T06:01:56.477Z,15.93
2018-12-30T06:04:44.838Z,15.90
2018-12-30T06:07:33.084Z,15.53
2018-12-30T06:10:21.166Z,16.20
2018-12-30T06:13:09.251Z,16.00
2018-12-30T06:15:57.328Z,15.50
2018-12-30T06:18:45.271Z,16.37
2018-12-30T06:21:33.349Z,16.27
2018-12-30T06:24:21.597Z,15.10
2018-12-30T06:27:09.644Z,15.90
2018-12-30T06:29:57.739Z,15.33
2018-12-30T06:32:45.769Z,15.47
2018-12-30T06:35:33.845Z,17.97
2018-12-30T06:38:21.914Z,15.70
2018-12-30T06:41:09.998Z,15.70
2018-12-30T06:47:05.187Z,15.87
2018-12-30T06:49:53.222Z,15.97
2018-12-30T06:52:41.325Z,15.53
2018-12-30T06:55:29.390Z,16.57
2018-12-30T06:58:17.572Z,15.40
2018-12-30T07:01:05.647Z,15.73
2018-12-30T07:03:53.681Z,15.70
2018-12-30T07:06:41.777Z,15.20
2018-12-30T07:09:29.869Z,15.30
2018-12-30T07:12:17.904Z,16.83
2018-12-30T07:15:05.981Z,15.60
2018-12-30T07:17:53.880Z,15.63
2018-12-30T07:20:41.824Z,16.57
2018-12-30T07:23:29.862Z,16.23
2018-12-30T07:26:17.941Z,16.07
2018-12-30T07:29:06.025Z,17.33
2018-12-30T07:31:54.061Z,16.50
2018-12-30T07:34:42.147Z,15.80
2018-12-30T07:37:30.482Z,16.03
2018-12-30T07:40:18.565Z,16.07
2018-12-30T07:43:06.653Z,15.63
2018-12-30T07:45:54.694Z,16.80
2018-12-30T07:48:43.100Z,18.50
2018-12-30T07:51:31.142Z,17.50
2018-12-30T07:54:19.225Z,16.00
2018-12-30T07:57:07.311Z,17.10
2018-12-30T08:03:02.501Z,15.97
2018-12-30T08:05:50.585Z,16.33
2018-12-30T08:08:38.835Z,16.13
2018-12-30T08:11:27.279Z,16.90
2018-12-30T08:14:15.187Z,17.70
2018-12-30T08:17:03.557Z,17.97
2018-12-30T08:19:32.696Z,17.63
2018-12-30T08:22:20.777Z,16.97
2018-12-30T08:25:08.715Z,17.70
2018-12-30T08:27:56.851Z,18.47
2018-12-30T08:30:44.976Z,19.53
2018-12-30T08:33:33.055Z,18.80
2018-12-30T08:36:21.095Z,18.40
2018-12-30T08:39:09.391Z,18.47
2018-12-30T08:45:04.555Z,18.10
2018-12-30T08:47:52.644Z,18.70
2018-12-30T08:50:40.538Z,17.20
2018-12-30T08:53:29.502Z,18.30
2018-12-30T08:56:18.102Z,18.50
2018-12-30T08:59:06.226Z,17.87
2018-12-30T09:01:54.088Z,18.80
2018-12-30T09:04:23.174Z,19.40
2018-12-30T09:07:11.217Z,19.13
2018-12-30T09:09:59.296Z,19.50
2018-12-30T09:12:47.240Z,17.53
2018-12-30T09:15:35.265Z,17.90
2018-12-30T09:18:23.343Z,20.10
2018-12-30T09:21:11.415Z,22.40
2018-12-30T09:23:59.486Z,17.97
2018-12-30T09:26:47.565Z,17.93
2018-12-30T09:29:35.654Z,18.23
2018-12-30T09:32:23.696Z,19.00
2018-12-30T09:35:11.966Z,19.87
2018-12-30T09:37:40.917Z,19.83
2018-12-30T09:40:29.064Z,18.97
2018-12-30T09:43:17.113Z,18.80
2018-12-30T09:46:05.203Z,19.20
2018-12-30T09:48:53.277Z,19.40
2018-12-30T09:51:41.339Z,18.43
2018-12-30T09:57:22.982Z,20.03
2018-12-30T10:00:11.337Z,19.63
2018-12-30T10:02:59.441Z,18.20
2018-12-30T10:05:47.442Z,20.10
2018-12-30T10:08:35.537Z,20.73
2018-12-30T10:11:23.636Z,20.03
2018-12-30T10:14:11.710Z,18.30
2018-12-30T10:16:59.652Z,20.00
2018-12-30T10:19:28.639Z,19.30
2018-12-30T10:22:16.711Z,18.90
2018-12-30T10:25:04.668Z,19.80
2018-12-30T10:27:52.750Z,19.63
2018-12-30T10:30:40.795Z,18.30
2018-12-30T10:33:29.175Z,18.13
2018-12-30T10:36:17.152Z,18.37
2018-12-30T10:39:05.198Z,18.37
2018-12-30T10:44:47.615Z,18.50
2018-12-30T10:47:35.772Z,17.57
2018-12-30T10:53:19.210Z,16.53
2018-12-30T10:56:07.303Z,16.40
2018-12-30T10:58:55.378Z,16.70
2018-12-30T11:01:43.436Z,17.43
2018-12-30T11:04:31.514Z,16.23
2018-12-30T11:07:19.454Z,18.50
2018-12-30T11:10:07.509Z,16.70
2018-12-30T11:12:55.594Z,17.07
2018-12-30T11:15:43.629Z,17.20
2018-12-30T11:18:31.973Z,17.30
2018-12-30T11:21:19.971Z,15.20
2018-12-30T11:23:48.958Z,15.53
2018-12-30T11:26:36.989Z,16.97
2018-12-30T11:29:25.153Z,15.60
2018-12-30T11:35:06.922Z,16.40
2018-12-30T11:37:55.000Z,15.77
2018-12-30T11:40:43.089Z,15.23
2018-12-30T11:43:31.169Z,18.10
2018-12-30T11:46:19.295Z,15.60
2018-12-30T11:49:07.390Z,15.50
2018-12-30T11:57:57.105Z,15.27
2018-12-30T12:00:45.192Z,15.63
2018-12-30T12:06:40.373Z,15.77
2018-12-30T12:12:35.821Z,15.43
2018-12-30T12:15:44.284Z,15.57
2018-12-30T12:18:32.361Z,14.87
2018-12-30T12:21:20.405Z,15.53
2018-12-30T12:24:08.487Z,15.20
2018-12-30T12:30:03.676Z,16.80
2018-12-30T12:32:52.161Z,16.47
2018-12-30T12:35:40.199Z,16.87
2018-12-30T12:38:28.282Z,17.73
2018-12-30T12:41:16.177Z,16.50
2018-12-30T12:44:04.267Z,16.87
2018-12-30T12:49:59.460Z,16.67
2018-12-30T12:52:47.501Z,16.80
2018-12-30T12:58:29.088Z,15.70
2018-12-30T13:01:17.102Z,16.03
2018-12-30T13:07:12.312Z,15.17
2018-12-30T13:13:07.490Z,16.70
2018-12-30T13:16:03.166Z,16.33
2018-12-30T13:18:45.329Z,15.20
2018-12-30T13:21:33.385Z,16.43
2018-12-30T13:24:21.745Z,16.40
2018-12-30T13:27:09.788Z,17.47
2018-12-30T13:29:57.736Z,14.97
2018-12-30T13:32:45.826Z,17.00
2018-12-30T13:35:33.901Z,16.83
2018-12-30T13:38:28.248Z,16.30
2018-12-30T13:41:11.792Z,16.07
2018-12-30T13:43:59.794Z,16.73
2018-12-30T13:46:47.874Z,16.67
2018-12-30T13:49:35.958Z,16.37
2018-12-30T13:52:24.162Z,16.60
2018-12-30T13:55:12.321Z,16.50
2018-12-30T13:58:00.354Z,16.00
2018-12-30T14:00:48.370Z,16.50
2018-12-30T14:03:36.309Z,16.30
2018-12-30T14:06:24.388Z,16.67
2018-12-30T14:09:12.371Z,16.40
2018-12-30T14:12:00.462Z,17.00
2018-12-30T14:17:55.649Z,16.70
2018-12-30T14:20:43.681Z,16.60
2018-12-30T14:23:31.764Z,15.67
2018-12-30T14:26:19.690Z,16.70
2018-12-30T14:29:07.786Z,17.47
2018-12-30T14:31:55.878Z,15.83
2018-12-30T14:37:51.074Z,16.23
2018-12-30T14:40:39.122Z,16.97
2018-12-30T14:43:27.201Z,15.90
2018-12-30T14:49:09.282Z,16.93
2018-12-30T14:51:57.222Z,16.10
2018-12-30T14:54:45.257Z,16.73
2018-12-30T14:57:33.334Z,16.47
2018-12-30T15:00:21.410Z,17.30
2018-12-30T15:03:09.497Z,17.90
2018-12-30T15:05:57.550Z,16.90
2018-12-30T15:08:45.543Z,16.30
2018-12-30T15:14:40.705Z,18.17
2018-12-30T15:17:28.757Z,18.10
2018-12-30T15:20:16.837Z,16.97
2018-12-30T15:23:05.065Z,17.80
2018-12-30T15:25:52.993Z,17.83
2018-12-30T15:28:41.365Z,18.90
2018-12-30T15:31:29.307Z,18.57
2018-12-30T15:34:17.284Z,18.80
2018-12-30T15:37:05.367Z,16.83
2018-12-30T15:39:34.295Z,17.20
2018-12-30T15:42:22.369Z,17.40
2018-12-30T15:45:10.446Z,18.57
2018-12-30T15:47:58.446Z,17.83
2018-12-30T15:50:46.557Z,17.27
2018-12-30T15:53:34.594Z,18.03
2018-12-30T15:56:22.682Z,17.70
2018-12-30T16:02:17.830Z,18.40
2018-12-30T16:05:05.910Z,18.23
2018-12-30T16:07:53.992Z,17.70
2018-12-30T16:13:49.169Z,18.07
2018-12-30T16:16:37.060Z,18.23
2018-12-30T16:19:25.419Z,18.00
2018-12-30T16:22:13.513Z,18.10
2018-12-30T16:25:01.525Z,17.53
2018-12-30T16:27:49.597Z,18.30
2018-12-30T16:30:37.628Z,18.83
2018-12-30T16:36:19.830Z,18.67
2018-12-30T16:39:08.234Z,17.03
2018-12-30T16:41:57.934Z,17.10
2018-12-30T16:44:46.394Z,17.80
2018-12-30T16:47:41.587Z,17.70
2018-12-30T16:50:05.870Z,17.80
2018-12-30T16:56:01.047Z,17.50
2018-12-30T17:01:56.303Z,19.57
2018-12-30T17:04:44.391Z,18.00
2018-12-30T17:07:32.433Z,17.80
2018-12-30T17:10:20.532Z,21.20
2018-12-30T17:13:08.568Z,23.00
2018-12-30T17:15:56.740Z,20.77
2018-12-30T17:18:44.640Z,23.00
2018-12-30T17:21:32.732Z,22.83
2018-12-30T17:24:20.766Z,19.90
2018-12-30T17:27:08.847Z,21.03
2018-12-30T17:33:03.879Z,21.13
2018-12-30T17:35:51.909Z,20.30
2018-12-30T17:38:39.995Z,18.97
2018-12-30T17:41:28.091Z,19.23
2018-12-30T17:44:17.442Z,18.00
2018-12-30T17:47:05.945Z,20.10
2018-12-30T17:49:53.982Z,19.00
2018-12-30T17:52:42.129Z,20.70
2018-12-30T17:55:30.159Z,17.80
2018-12-30T17:58:18.103Z,19.10
2018-12-30T18:01:06.201Z,20.13
2018-12-30T18:03:54.274Z,19.43
2018-12-30T18:06:42.360Z,19.60
2018-12-30T18:09:30.506Z,18.00
2018-12-30T18:12:18.537Z,18.83
2018-12-30T18:15:06.618Z,21.30
2018-12-30T18:17:54.667Z,18.60
2018-12-30T18:23:36.191Z,20.17
2018-12-30T18:26:24.220Z,19.70
2018-12-30T18:29:12.281Z,23.10
2018-12-30T18:32:00.365Z,24.33
2018-12-30T18:34:48.402Z,23.73
2018-12-30T18:37:36.474Z,21.87
2018-12-30T18:40:45.327Z,23.97
2018-12-30T18:43:33.342Z,22.97
2018-12-30T18:46:21.726Z,21.97
2018-12-30T18:49:10.098Z,23.80
2018-12-30T18:51:58.174Z,23.63
2018-12-30T18:54:46.217Z,23.97
2018-12-30T18:57:34.317Z,23.70
2018-12-30T19:00:22.373Z,22.93
2018-12-30T19:03:10.442Z,24.07
2018-12-30T19:05:58.490Z,24.27
2018-12-30T19:08:46.575Z,21.60
2018-12-30T19:11:15.515Z,21.23
2018-12-30T19:14:03.603Z,19.53
2018-12-30T19:19:59.146Z,19.63
2018-12-30T19:26:00.895Z,24.03
2018-12-30T19:28:44.055Z,19.97
2018-12-30T19:31:32.002Z,20.10
2018-12-30T19:34:19.899Z,20.50
2018-12-30T19:37:07.998Z,20.40
2018-12-30T19:39:56.022Z,20.30
2018-12-30T19:42:44.017Z,20.30
2018-12-30T19:48:39.269Z,20.67
2018-12-30T19:54:15.341Z,20.80
2018-12-30T19:57:03.387Z,20.67
2018-12-30T19:59:51.441Z,22.13
2018-12-30T20:02:39.478Z,19.47
2018-12-30T20:05:08.572Z,20.80
2018-12-30T20:07:56.610Z,23.97
2018-12-30T20:10:44.724Z,20.90
2018-12-30T20:13:33.175Z,20.13
2018-12-30T20:16:21.209Z,23.30
2018-12-30T20:19:09.294Z,28.63
2018-12-30T20:21:57.330Z,27.00
2018-12-30T20:24:45.442Z,25.00
2018-12-30T20:30:40.667Z,19.10
2018-12-30T20:33:28.721Z,19.30
2018-12-30T20:36:16.791Z,17.57
2018-12-30T20:39:04.881Z,21.90
2018-12-30T20:41:52.947Z,22.53
2018-12-30T20:44:40.991Z,21.00
2018-12-30T20:47:28.922Z,19.03
2018-12-30T20:50:16.828Z,18.53
2018-12-30T20:53:04.926Z,19.97
2018-12-30T20:59:00.097Z,27.10
2018-12-30T21:04:55.401Z,18.90
2018-12-30T21:07:43.473Z,19.70
2018-12-30T21:10:31.562Z,18.50
2018-12-30T21:19:15.365Z,22.47
2018-12-30T21:22:03.446Z,25.37
2018-12-30T21:24:51.420Z,23.63
2018-12-30T21:27:39.518Z,22.50
2018-12-30T21:33:23.881Z,19.37
2018-12-30T21:36:11.965Z,17.37
2018-12-30T21:38:59.984Z,19.03
2018-12-30T21:41:48.065Z,19.40
2018-12-30T21:47:43.260Z,18.23
2018-12-30T21:50:31.378Z,18.77
2018-12-30T21:53:19.577Z,19.50
2018-12-30T21:56:07.695Z,17.70
2018-12-30T22:02:02.873Z,17.73
2018-12-30T22:04:50.909Z,19.20
2018-12-30T22:07:38.990Z,19.80
2018-12-30T22:13:34.719Z,19.80
2018-12-30T22:16:22.798Z,20.10
2018-12-30T22:19:10.915Z,19.70
2018-12-30T22:21:58.990Z,20.97
2018-12-30T22:24:46.884Z,19.27
2018-12-30T22:27:34.962Z,19.60
2018-12-30T22:30:23.037Z,21.67
2018-12-30T22:33:11.076Z,19.40
2018-12-30T22:35:59.213Z,23.20
2018-12-30T22:38:47.133Z,20.87
2018-12-30T22:41:35.221Z,18.33
2018-12-30T22:47:30.392Z,20.33
2018-12-30T22:53:25.561Z,20.00
2018-12-30T22:56:13.601Z,19.87
2018-12-30T22:58:42.970Z,21.20
2018-12-30T23:01:30.946Z,21.77
2018-12-30T23:04:19.025Z,21.20
2018-12-30T23:07:07.109Z,21.07
2018-12-30T23:09:55.196Z,20.60
2018-12-30T23:15:50.374Z,20.03
2018-12-30T23:18:38.462Z,18.67
2018-12-30T23:21:26.506Z,20.13
2018-12-30T23:24:14.587Z,21.83
2018-12-30T23:26:43.734Z,20.67
2018-12-30T23:29:12.744Z,20.20
2018-12-30T23:32:00.801Z,21.20
2018-12-30T23:34:48.844Z,18.77
2018-12-30T23:40:30.793Z,19.20
2018-12-30T23:43:18.889Z,20.73
2018-12-30T23:46:06.802Z,20.47
2018-12-30T23:48:54.886Z,20.17
2018-12-30T23:51:42.932Z,22.87
2018-12-30T23:54:31.013Z,18.33
2018-12-30T23:57:19.099Z,22.30
